Time;durP1;ratioP1;P1;durP2;ratioP2;P2;SDS_P1;SDS_P2;PMS_P1;PMS_P2;Temp;Humidity;BMP_temperature;BMP_pressure;BME280_temperature;BME280_humidity;BME280_pressure;Samples;Min_cycle;Max_cycle;Signal;HPM_P1;HPM_P2
2022/04/17 00:01:44;;;;;;;2.45;0.70;;;;;;;16.19;40.95;101877.16;5052539;28;20074;-61
2022/04/17 00:04:14;;;;;;;1.80;0.40;;;;;;;16.20;40.81;101870.94;5052164;28;20092;-61
2022/04/17 00:06:42;;;;;;;1.80;0.77;;;;;;;16.17;40.92;101871.97;5052275;28;20397;-61
2022/04/17 00:09:08;;;;;;;2.40;0.73;;;;;;;16.14;40.88;101873.00;5052121;28;20091;-61
2022/04/17 00:11:35;;;;;;;2.28;0.68;;;;;;;16.10;40.83;101878.59;5052522;28;20037;-61
2022/04/17 00:14:01;;;;;;;1.10;0.70;;;;;;;16.05;41.09;101878.91;5052203;28;20045;-61
2022/04/17 00:16:28;;;;;;;2.15;0.70;;;;;;;15.99;40.98;101877.47;5050228;28;20080;-61
2022/04/17 00:18:55;;;;;;;2.90;0.90;;;;;;;15.99;41.37;101872.16;5047815;28;20074;-60
2022/04/17 00:21:22;;;;;;;1.88;0.80;;;;;;;15.96;41.14;101876.78;5051605;28;20081;-61
2022/04/17 00:23:49;;;;;;;1.40;0.77;;;;;;;15.95;41.17;101880.41;5037943;28;20084;-61
2022/04/17 00:26:16;;;;;;;1.50;0.90;;;;;;;15.92;40.92;101878.81;5050777;28;20110;-61
2022/04/17 00:28:42;;;;;;;2.05;0.98;;;;;;;15.90;41.17;101875.38;5050592;28;20073;-60
2022/04/17 00:31:09;;;;;;;3.05;0.80;;;;;;;15.87;40.94;101872.94;5051836;28;20456;-61
2022/04/17 00:33:36;;;;;;;1.77;0.82;;;;;;;15.86;40.60;101876.53;5051260;28;20079;-61
2022/04/17 00:36:02;;;;;;;0.85;0.60;;;;;;;15.80;41.08;101880.34;5051171;28;20448;-60
2022/04/17 00:38:29;;;;;;;1.48;0.73;;;;;;;15.78;40.77;101884.91;5051463;28;20080;-60
2022/04/17 00:40:55;;;;;;;1.70;0.73;;;;;;;15.73;41.13;101879.03;5050244;28;20080;-61
2022/04/17 00:43:31;;;;;;;2.05;0.75;;;;;;;15.74;40.75;101882.53;5051333;28;20186;-60
2022/04/17 00:45:59;;;;;;;1.88;0.88;;;;;;;15.73;40.92;101886.97;5045916;28;20091;-61
2022/04/17 00:48:26;;;;;;;2.22;0.70;;;;;;;15.72;40.97;101893.22;5040567;28;20076;-60
2022/04/17 00:50:56;;;;;;;1.95;0.95;;;;;;;15.71;41.04;101898.59;5051435;28;20056;-60
2022/04/17 00:53:25;;;;;;;4.13;0.80;;;;;;;15.69;40.89;101888.06;5051571;28;20099;-60
2022/04/17 00:55:52;;;;;;;5.57;1.05;;;;;;;15.64;40.89;101891.03;5051396;28;20601;-60
2022/04/17 00:58:20;;;;;;;1.92;0.77;;;;;;;15.61;41.23;101891.19;5039447;28;20076;-60
2022/04/17 01:00:47;;;;;;;2.72;0.80;;;;;;;15.58;41.21;101895.81;5051591;28;20521;-61
2022/04/17 01:03:15;;;;;;;2.42;0.85;;;;;;;15.50;41.46;101899.78;5051076;28;20402;-60
2022/04/17 01:05:46;;;;;;;3.38;1.08;;;;;;;15.48;41.34;101899.00;5051411;28;20056;-60
2022/04/17 01:08:14;;;;;;;1.80;0.75;;;;;;;15.48;41.42;101901.66;5049000;28;20052;-61
2022/04/17 01:10:41;;;;;;;3.00;1.00;;;;;;;15.44;41.39;101902.78;5051378;28;20095;-60
2022/04/17 01:13:10;;;;;;;3.22;1.02;;;;;;;15.40;41.62;101903.91;5049758;28;20133;-60
2022/04/17 01:15:37;;;;;;;3.10;1.27;;;;;;;15.30;41.94;101900.94;5051019;28;20536;-61
2022/04/17 01:18:05;;;;;;;4.50;1.15;;;;;;;15.25;41.74;101899.50;5046198;28;20090;-61
2022/04/17 01:20:32;;;;;;;4.05;1.05;;;;;;;15.19;42.30;101901.53;5046505;28;20045;-61
2022/04/17 01:28:28;;;;;;;5.18;1.35;;;;;;;15.00;42.70;101903.56;5043029;28;20092;-61
2022/04/17 01:30:56;;;;;;;4.40;1.10;;;;;;;14.98;42.92;101913.34;5046851;28;20068;-61
2022/04/17 01:33:23;;;;;;;3.78;1.15;;;;;;;14.91;43.04;101902.28;5041545;28;20575;-60
2022/04/17 01:35:49;;;;;;;3.60;1.30;;;;;;;14.86;43.07;101904.34;5046450;28;20053;-61
2022/04/17 01:38:16;;;;;;;1.70;0.82;;;;;;;14.81;43.66;101909.03;5042546;28;20211;-61
2022/04/17 01:40:43;;;;;;;1.40;0.82;;;;;;;14.84;43.45;101906.19;5045777;28;20045;-61
2022/04/17 01:43:10;;;;;;;5.57;1.63;;;;;;;14.85;43.44;101907.91;5044417;28;20056;-61
2022/04/17 01:45:37;;;;;;;1.90;1.02;;;;;;;14.81;43.59;101906.38;5044030;28;20075;-61
2022/04/17 01:48:04;;;;;;;3.35;1.40;;;;;;;14.81;43.42;101903.75;5038843;28;20076;-61
2022/04/17 01:50:31;;;;;;;2.78;1.17;;;;;;;14.78;43.53;101899.47;5054789;28;20081;-61
2022/04/17 01:53:01;;;;;;;4.25;1.48;;;;;;;14.76;43.50;101898.69;5052026;28;20049;-62
2022/04/17 01:55:28;;;;;;;4.22;1.33;;;;;;;14.79;43.39;101900.31;5054800;28;20409;-60
2022/04/17 01:57:55;;;;;;;5.97;1.70;;;;;;;14.78;43.07;101902.13;5054746;28;20460;-61
2022/04/17 02:00:22;;;;;;;4.55;1.83;;;;;;;14.76;43.33;101903.16;5054669;28;20077;-61
2022/04/17 02:02:49;;;;;;;5.18;1.70;;;;;;;14.71;43.32;101908.69;5054673;28;20464;-61
2022/04/17 02:05:16;;;;;;;4.63;1.80;;;;;;;14.71;43.01;101899.91;5054396;28;20547;-61
2022/04/17 02:07:42;;;;;;;7.40;1.73;;;;;;;14.72;42.83;101905.09;5050024;28;20045;-61
2022/04/17 02:10:14;;;;;;;4.93;1.60;;;;;;;14.68;42.74;101903.56;5048044;28;20045;-60
2022/04/17 02:12:41;;;;;;;4.30;1.85;;;;;;;14.67;42.65;101900.06;5054473;28;20049;-61
2022/04/17 02:15:08;;;;;;;6.25;1.70;;;;;;;14.63;42.77;101892.38;5052880;28;20095;-61
2022/04/17 02:17:36;;;;;;;3.97;1.70;;;;;;;14.60;42.58;101888.13;5052793;28;20041;-60
2022/04/17 02:20:03;;;;;;;7.40;2.08;;;;;;;14.54;42.79;101889.28;5054013;28;20037;-61
2022/04/17 02:22:30;;;;;;;6.43;2.17;;;;;;;14.54;42.84;101891.09;5054026;28;20045;-61
2022/04/17 02:24:57;;;;;;;3.70;1.70;;;;;;;14.47;42.74;101887.91;5053624;28;20087;-61
2022/04/17 02:27:23;;;;;;;4.85;1.98;;;;;;;14.49;42.62;101893.13;5043299;28;20045;-61
2022/04/17 02:29:50;;;;;;;5.32;1.70;;;;;;;14.44;42.83;101888.09;5054124;28;20091;-61
2022/04/17 02:32:17;;;;;;;3.47;1.83;;;;;;;14.43;42.72;101894.31;5053866;28;20102;-60
2022/04/17 02:34:43;;;;;;;4.75;1.75;;;;;;;14.36;42.82;101893.81;5053876;28;20091;-61
2022/04/17 02:37:10;;;;;;;5.85;2.10;;;;;;;14.36;42.79;101895.59;5053453;28;20076;-61
2022/04/17 02:39:37;;;;;;;7.15;2.08;;;;;;;14.35;42.72;101891.25;5053978;28;20075;-61
2022/04/17 02:42:04;;;;;;;9.27;2.20;;;;;;;14.34;42.60;101890.38;5053524;28;20048;-61
2022/04/17 02:44:31;;;;;;;5.90;1.63;;;;;;;14.36;42.81;101887.69;5053644;28;20094;-61
2022/04/17 02:49:42;;;;;;;5.20;1.90;;;;;;;14.28;42.78;101887.22;5052604;28;20079;-61
2022/04/17 02:52:10;;;;;;;4.40;1.63;;;;;;;14.19;43.07;101891.22;5053584;28;20049;-61
2022/04/17 02:54:38;;;;;;;5.10;1.50;;;;;;;14.15;43.16;101889.69;5053342;28;20041;-61
2022/04/17 02:57:04;;;;;;;7.72;2.00;;;;;;;14.11;43.14;101888.16;5053300;28;20045;-61
2022/04/17 02:59:31;;;;;;;4.20;1.58;;;;;;;14.10;43.52;101886.44;5050872;28;20081;-61
2022/04/17 03:07:29;;;;;;;6.63;1.92;;;;;;;14.18;43.25;101907.97;5040483;28;20049;-61
2022/04/17 03:09:55;;;;;;;7.22;2.13;;;;;;;14.14;43.38;101904.66;5039036;28;20041;-61
2022/04/17 03:12:23;;;;;;;5.95;1.80;;;;;;;14.11;43.62;101907.47;5037050;28;20089;-61
2022/04/17 03:14:50;;;;;;;5.75;1.98;;;;;;;14.13;43.53;101905.59;5037424;28;20099;-61
2022/04/17 03:17:16;;;;;;;6.15;1.83;;;;;;;14.11;43.67;101906.63;5038254;28;20103;-61
2022/04/17 03:19:43;;;;;;;6.35;1.67;;;;;;;14.10;43.75;101904.91;5035087;28;20057;-61
2022/04/17 03:22:09;;;;;;;6.82;2.10;;;;;;;14.07;43.64;101908.56;5039896;28;20045;-61
2022/04/17 03:24:36;;;;;;;5.38;1.67;;;;;;;14.04;43.77;101901.66;5034493;28;20040;-61
2022/04/17 03:27:02;;;;;;;8.43;1.58;;;;;;;14.01;43.60;101900.97;5039356;28;20073;-61
2022/04/17 03:29:29;;;;;;;5.53;1.65;;;;;;;13.95;43.89;101904.75;5035490;28;20099;-61
2022/04/17 03:31:56;;;;;;;4.25;1.55;;;;;;;13.92;43.96;101906.72;5037841;28;20081;-60
2022/04/17 03:34:23;;;;;;;4.65;1.92;;;;;;;13.86;44.28;101908.75;5036953;28;20042;-61
2022/04/17 03:36:50;;;;;;;4.20;1.65;;;;;;;13.81;44.25;101905.47;5036148;28;20092;-61
2022/04/17 03:39:16;;;;;;;5.85;1.83;;;;;;;13.78;44.49;101910.09;5038695;28;20084;-61
2022/04/17 03:41:43;;;;;;;5.38;1.92;;;;;;;13.72;44.49;101905.97;5034933;28;20042;-61
2022/04/17 03:44:09;;;;;;;6.10;1.70;;;;;;;13.63;44.76;101915.19;5040653;28;20152;-61
2022/04/17 03:46:36;;;;;;;5.78;1.67;;;;;;;13.58;44.89;101916.38;5033428;28;20533;-61
2022/04/17 03:49:03;;;;;;;8.48;1.88;;;;;;;13.57;44.76;101917.28;5042730;28;20080;-61
2022/04/17 03:51:30;;;;;;;8.73;1.95;;;;;;;13.55;44.73;101915.59;5049414;28;20055;-61
2022/04/17 03:53:56;;;;;;;7.57;1.98;;;;;;;13.56;44.58;101924.38;5049342;28;20053;-61
2022/04/17 03:56:23;;;;;;;6.03;1.92;;;;;;;13.55;44.34;101920.03;5049415;28;20152;-60
2022/04/17 03:58:50;;;;;;;6.35;1.88;;;;;;;13.54;44.29;101916.50;5049370;28;20053;-61
2022/04/17 04:01:16;;;;;;;6.15;2.22;;;;;;;13.59;43.56;101911.00;5034364;28;20077;-61
2022/04/17 04:03:43;;;;;;;6.97;2.03;;;;;;;13.61;43.11;101919.72;5048874;28;20589;-61
2022/04/17 04:06:10;;;;;;;7.93;2.00;;;;;;;13.62;42.50;101918.75;5047185;28;20096;-60
2022/04/17 04:08:36;;;;;;;8.82;2.38;;;;;;;13.62;42.09;101908.22;5044965;28;20045;-61
2022/04/17 04:11:03;;;;;;;7.22;2.20;;;;;;;13.63;41.88;101912.56;5041578;28;20045;-61
2022/04/17 04:13:30;;;;;;;9.93;3.45;;;;;;;13.63;41.35;101914.34;5048621;28;20048;-60
2022/04/17 04:15:56;;;;;;;6.78;1.80;;;;;;;13.67;41.11;101910.63;5048670;28;20071;-61
2022/04/17 04:18:23;;;;;;;9.55;2.55;;;;;;;13.59;41.06;101913.66;5042137;28;20076;-61
2022/04/17 04:20:50;;;;;;;11.23;3.10;;;;;;;13.57;41.04;101912.03;5048668;28;20620;-61
2022/04/17 04:23:19;;;;;;;8.77;1.90;;;;;;;13.59;40.65;101916.28;5048436;28;20052;-61
2022/04/17 04:25:46;;;;;;;6.13;2.03;;;;;;;13.59;40.67;101918.94;5048649;28;20522;-60
2022/04/17 04:30:57;;;;;;;4.38;1.85;;;;;;;13.57;40.36;101922.56;5048434;28;20111;-60
2022/04/17 04:33:24;;;;;;;9.98;2.67;;;;;;;13.54;40.17;101924.41;5047870;28;20084;-61
2022/04/17 04:35:51;;;;;;;5.20;2.05;;;;;;;13.54;40.04;101931.50;5048581;28;20493;-61
2022/04/17 04:38:18;;;;;;;5.30;1.70;;;;;;;13.51;39.97;101923.72;5048144;28;20052;-61
2022/04/17 04:40:44;;;;;;;8.18;1.90;;;;;;;13.46;39.89;101931.00;5048311;28;20106;-61
2022/04/17 04:43:12;;;;;;;4.22;1.70;;;;;;;13.48;39.63;101937.91;5046839;28;20048;-61
2022/04/17 04:51:09;;;;;;;4.93;2.17;;;;;;;13.52;39.43;101928.06;5047631;28;20037;-61
2022/04/17 04:53:35;;;;;;;5.97;2.00;;;;;;;13.49;39.27;101925.59;5048447;28;20969;-60
2022/04/17 04:56:02;;;;;;;8.63;2.10;;;;;;;13.49;39.03;101931.72;5047891;28;20045;-60
2022/04/17 04:58:28;;;;;;;6.00;2.40;;;;;;;13.51;38.79;101924.59;5048534;28;20111;-61
2022/04/17 05:00:55;;;;;;;5.38;1.83;;;;;;;13.46;39.01;101923.09;5048026;28;20452;-61
2022/04/17 05:03:21;;;;;;;7.38;2.20;;;;;;;13.43;38.70;101925.91;5048173;28;20037;-60
2022/04/17 05:05:48;;;;;;;12.38;2.83;;;;;;;13.50;38.51;101924.66;5048134;28;20041;-60
2022/04/17 05:08:15;;;;;;;4.60;1.70;;;;;;;13.49;38.46;101926.44;5047669;28;20084;-61
2022/04/17 05:10:41;;;;;;;6.40;1.50;;;;;;;14.29;40.81;101924.09;5048284;28;20037;-60
2022/04/17 05:13:08;;;;;;;7.82;1.23;;;;;;;14.85;43.63;101923.75;5047846;28;20080;-59
2022/04/17 05:15:35;;;;;;;6.43;1.50;;;;;;;15.13;44.23;101923.03;5040681;28;20132;-61
2022/04/17 05:18:01;;;;;;;5.38;1.77;;;;;;;14.79;44.18;101921.47;5038818;28;20045;-61
2022/04/17 05:20:29;;;;;;;5.20;2.03;;;;;;;14.50;42.76;101918.59;5041164;28;20386;-61
2022/04/17 05:23:03;;;;;;;5.63;2.00;;;;;;;14.42;41.66;101923.44;5049507;28;20040;-61
2022/04/17 05:25:30;;;;;;;11.88;1.90;;;;;;;14.35;40.55;101920.28;5037984;28;20056;-60
2022/04/17 05:27:57;;;;;;;4.90;1.50;;;;;;;14.34;39.99;101926.50;5050872;28;20442;-60
2022/04/17 05:30:30;;;;;;;4.22;1.80;;;;;;;14.33;39.37;101924.78;5047741;28;20052;-61
2022/04/17 05:33:07;;;;;;;5.82;1.75;;;;;;;14.28;38.97;101932.09;5047826;28;20053;-60
2022/04/17 05:35:33;;;;;;;6.60;1.85;;;;;;;14.29;38.47;101925.91;5050620;28;20139;-61
2022/04/17 05:38:00;;;;;;;5.43;1.77;;;;;;;14.23;38.12;101931.50;5051374;28;20052;-61
2022/04/17 05:40:29;;;;;;;12.70;2.00;;;;;;;14.28;37.60;101937.38;5050502;28;20072;-61
2022/04/17 05:42:56;;;;;;;8.05;1.73;;;;;;;14.27;37.27;101943.59;5051379;28;20045;-60
2022/04/17 05:45:22;;;;;;;7.38;2.10;;;;;;;14.26;37.11;101940.13;5046977;28;20489;-61
2022/04/17 05:47:49;;;;;;;5.20;2.22;;;;;;;14.34;36.73;101937.91;5037782;28;20087;-61
2022/04/17 05:50:16;;;;;;;7.63;2.03;;;;;;;14.33;36.42;101940.63;5050543;28;20045;-61
2022/04/17 05:52:42;;;;;;;5.95;1.80;;;;;;;14.36;36.41;101940.50;5047324;28;20045;-61
2022/04/17 05:55:09;;;;;;;4.55;1.83;;;;;;;14.41;36.11;101943.75;5038281;28;20084;-61
2022/04/17 05:57:36;;;;;;;5.43;2.38;;;;;;;14.47;36.10;101946.03;5038838;28;20042;-61
2022/04/17 06:00:08;;;;;;;7.80;2.10;;;;;;;14.52;35.74;101948.44;5045014;28;20079;-61
2022/04/17 06:02:36;;;;;;;3.53;1.60;;;;;;;14.59;35.61;101957.72;5047848;28;20049;-60
2022/04/17 06:05:03;;;;;;;4.13;1.70;;;;;;;14.62;35.49;101952.28;5038882;28;20041;-61
2022/04/17 06:07:31;;;;;;;9.90;2.05;;;;;;;14.62;35.35;101948.78;5031285;28;20084;-60
2022/04/17 06:10:16;;;;;;;11.65;2.10;;;;;;;14.61;35.21;101955.00;5050749;28;20072;-61
2022/04/17 06:12:42;;;;;;;5.15;1.80;;;;;;;14.64;34.92;101952.19;5038796;28;20045;-61
2022/04/17 06:15:10;;;;;;;5.18;1.98;;;;;;;14.66;34.55;101956.47;5042867;28;20072;-61
2022/04/17 06:17:40;;;;;;;8.07;3.10;;;;;;;14.72;34.60;101954.47;5040242;28;20087;-61
2022/04/17 06:20:10;;;;;;;8.60;2.20;;;;;;;14.79;34.32;101951.41;5041584;28;20049;-61
2022/04/17 06:22:37;;;;;;;7.88;1.80;;;;;;;14.88;34.23;101950.03;5041408;28;20080;-61
2022/04/17 06:25:09;;;;;;;4.85;2.05;;;;;;;14.91;34.18;101957.78;5040443;28;20081;-61
2022/04/17 06:27:39;;;;;;;7.13;2.13;;;;;;;14.95;33.99;101955.81;5045987;28;20084;-61
2022/04/17 06:30:08;;;;;;;6.63;1.95;;;;;;;15.06;33.76;101958.72;5039685;28;20092;-61
2022/04/17 06:32:35;;;;;;;6.45;1.70;;;;;;;15.03;33.67;101956.22;5042983;28;20072;-61
2022/04/17 06:35:02;;;;;;;6.28;2.28;;;;;;;15.10;33.83;101959.41;5037564;28;20069;-61
2022/04/17 06:37:28;;;;;;;5.80;1.75;;;;;;;15.35;33.37;101957.06;5043960;28;20079;-63
2022/04/17 06:39:57;;;;;;;5.43;1.92;;;;;;;15.42;33.03;101952.25;5038248;28;20087;-62
2022/04/17 06:42:23;;;;;;;5.28;1.73;;;;;;;15.49;32.96;101960.69;5037766;28;20095;-62
2022/04/17 06:44:50;;;;;;;4.88;2.17;;;;;;;15.54;32.57;101963.06;5039221;28;20203;-62
2022/04/17 06:47:17;;;;;;;7.20;2.03;;;;;;;15.59;32.71;101961.00;5034366;28;20635;-63
2022/04/17 06:49:43;;;;;;;3.92;1.75;;;;;;;15.59;32.83;101968.94;5036383;28;20045;-62
2022/04/17 06:52:10;;;;;;;3.88;1.70;;;;;;;15.64;32.59;101957.19;5050130;28;20045;-63
2022/04/17 06:54:36;;;;;;;4.85;1.77;;;;;;;15.70;32.33;101961.25;5049942;28;20041;-62
2022/04/17 06:57:03;;;;;;;5.30;1.70;;;;;;;15.78;32.00;101959.00;5049831;28;20485;-62
2022/04/17 06:59:30;;;;;;;5.45;1.98;;;;;;;15.92;31.95;101958.22;5050010;28;20103;-62
2022/04/17 07:01:56;;;;;;;8.23;1.98;;;;;;;15.91;31.67;101956.50;5049379;28;20076;-62
2022/04/17 07:04:24;;;;;;;6.53;1.95;;;;;;;15.99;31.42;101943.66;5037621;28;20060;-61
2022/04/17 07:06:50;;;;;;;7.35;1.92;;;;;;;16.16;31.46;101944.41;5049763;28;20045;-61
2022/04/17 07:09:17;;;;;;;6.38;2.28;;;;;;;16.23;31.19;101952.84;5041466;28;20077;-62
2022/04/17 07:11:44;;;;;;;6.93;1.80;;;;;;;16.35;31.13;101938.84;5043694;28;20106;-61
2022/04/17 07:14:14;;;;;;;5.20;1.90;;;;;;;16.43;30.72;101941.00;5042717;28;20080;-62
2022/04/17 07:16:46;;;;;;;5.65;1.77;;;;;;;16.43;30.77;101941.88;5046391;28;20052;-61
2022/04/17 07:19:15;;;;;;;7.13;1.88;;;;;;;16.42;30.60;101942.81;5048728;28;20060;-61
2022/04/17 07:21:42;;;;;;;5.32;1.50;;;;;;;16.48;30.37;101939.78;5048658;28;20493;-61
2022/04/17 07:24:09;;;;;;;6.65;1.75;;;;;;;16.50;30.08;101939.69;5049422;28;20075;-62
2022/04/17 07:26:35;;;;;;;6.57;1.60;;;;;;;16.59;29.97;101938.25;5049529;28;20464;-61
2022/04/17 07:29:03;;;;;;;6.07;1.83;;;;;;;16.66;29.62;101942.22;5049335;28;20194;-62
2022/04/17 07:31:30;;;;;;;5.05;2.10;;;;;;;16.74;29.95;101937.28;5049205;28;20132;-62
2022/04/17 07:33:57;;;;;;;6.38;1.80;;;;;;;16.73;29.73;101932.09;5049256;28;20036;-61
2022/04/17 07:36:24;;;;;;;3.75;1.80;;;;;;;16.76;29.51;101935.41;5038597;28;20155;-62
2022/04/17 07:38:51;;;;;;;5.10;2.17;;;;;;;16.84;29.22;101926.94;5039337;28;20555;-62
2022/04/17 07:41:17;;;;;;;5.43;1.38;;;;;;;17.02;29.33;101932.06;5049191;28;20102;-62
2022/04/17 07:43:45;;;;;;;7.07;2.05;;;;;;;17.11;29.04;101932.28;5049198;28;20045;-62
2022/04/17 07:46:12;;;;;;;7.80;2.63;;;;;;;17.18;28.98;101935.41;5043453;28;20080;-62
2022/04/17 07:48:38;;;;;;;6.28;3.63;;;;;;;17.20;28.87;101925.53;5041604;28;20041;-62
2022/04/17 07:51:05;;;;;;;8.65;2.10;;;;;;;17.29;28.93;101930.25;5047886;28;20553;-62
2022/04/17 07:53:31;;;;;;;10.15;1.95;;;;;;;17.44;28.49;101924.84;5048437;28;20076;-62
2022/04/17 07:55:58;;;;;;;5.75;1.73;;;;;;;17.60;28.51;101927.34;5048770;28;20081;-62
2022/04/17 07:58:33;;;;;;;5.93;1.80;;;;;;;17.67;28.45;101930.41;5049060;28;20069;-62
2022/04/17 08:01:10;;;;;;;7.20;1.90;;;;;;;17.83;28.36;101933.72;5044744;28;20532;-62
2022/04/17 08:03:46;;;;;;;3.70;1.77;;;;;;;17.98;28.20;101909.75;5048706;28;20049;-62
2022/04/17 08:06:20;;;;;;;3.97;1.63;;;;;;;18.07;27.84;101904.66;5045662;28;20125;-62
2022/04/17 08:08:49;;;;;;;5.38;1.63;;;;;;;18.21;28.18;101916.13;5048867;28;20072;-62
2022/04/17 08:11:16;;;;;;;4.85;2.00;;;;;;;18.33;27.94;101903.78;5048211;28;20132;-62
2022/04/17 08:13:45;;;;;;;6.72;1.95;;;;;;;18.46;27.53;101903.75;5048731;28;20045;-62
2022/04/17 08:16:12;;;;;;;8.85;2.10;;;;;;;18.54;27.00;101902.22;5048415;28;20080;-61
2022/04/17 08:18:41;;;;;;;2.92;1.63;;;;;;;18.60;27.12;101907.09;5048613;28;20068;-62
2022/04/17 08:21:08;;;;;;;8.00;1.73;;;;;;;18.70;26.84;101899.31;5044504;28;20087;-62
2022/04/17 08:23:37;;;;;;;5.75;1.75;;;;;;;18.75;26.74;101894.50;5048238;28;20104;-62
2022/04/17 08:26:05;;;;;;;5.93;1.88;;;;;;;18.90;26.45;101895.22;5048300;28;20052;-62
2022/04/17 08:28:32;;;;;;;5.15;1.98;;;;;;;18.93;26.43;101891.47;5048547;28;20052;-62
2022/04/17 08:30:59;;;;;;;3.75;1.67;;;;;;;19.06;25.73;101888.78;5048383;28;20110;-62
2022/04/17 08:33:29;;;;;;;6.75;2.03;;;;;;;19.17;26.09;101885.28;5048183;28;20087;-62
2022/04/17 08:35:57;;;;;;;3.75;1.42;;;;;;;19.40;25.91;101889.75;5042156;28;20482;-62
2022/04/17 08:38:24;;;;;;;5.53;1.70;;;;;;;19.47;25.66;101881.28;5048297;28;20099;-61
2022/04/17 08:40:52;;;;;;;4.22;1.73;;;;;;;19.48;25.46;101886.50;5048624;28;20087;-62
2022/04/17 08:43:18;;;;;;;7.13;1.73;;;;;;;19.66;25.26;101886.88;5048028;28;20494;-62
2022/04/17 08:45:46;;;;;;;3.53;1.80;;;;;;;19.77;24.90;101883.41;5047680;28;20044;-62
2022/04/17 08:48:13;;;;;;;5.80;2.20;;;;;;;19.89;24.98;101882.47;5035420;28;20037;-62
2022/04/17 08:50:40;;;;;;;5.82;1.65;;;;;;;19.91;24.51;101882.38;5047872;28;20045;-62
2022/04/17 08:53:08;;;;;;;4.22;1.73;;;;;;;19.94;24.48;101873.28;5047843;28;20045;-62
2022/04/17 08:55:34;;;;;;;7.32;2.08;;;;;;;20.14;24.44;101874.38;5048190;28;20084;-62
2022/04/17 08:58:01;;;;;;;3.40;1.90;;;;;;;20.30;24.00;101872.19;5051297;28;20141;-62
2022/04/17 09:00:28;;;;;;;6.43;1.65;;;;;;;20.29;23.80;101867.81;5052200;28;20049;-62
2022/04/17 09:02:54;;;;;;;6.10;2.92;;;;;;;20.59;23.45;101860.13;5052004;28;20049;-62
2022/04/17 09:05:21;;;;;;;4.63;2.72;;;;;;;20.70;23.35;101858.28;5051810;28;20068;-62
2022/04/17 09:07:53;;;;;;;5.43;2.65;;;;;;;20.80;23.53;101865.56;5052276;28;20051;-62
2022/04/17 09:10:23;;;;;;;3.78;1.90;;;;;;;20.95;23.25;101860.75;5052131;28;20051;-62
2022/04/17 09:12:52;;;;;;;8.48;2.10;;;;;;;20.99;23.02;101852.38;5049526;28;20079;-62
2022/04/17 09:15:22;;;;;;;4.25;1.85;;;;;;;21.15;22.57;101841.25;5051805;28;20052;-62
2022/04/17 09:17:50;;;;;;;6.53;2.50;;;;;;;21.22;22.62;101838.91;5048877;28;20532;-62
2022/04/17 09:20:22;;;;;;;6.78;2.10;;;;;;;21.30;22.41;101823.06;5050486;28;20347;-62
2022/04/17 09:22:51;;;;;;;4.38;2.28;;;;;;;21.37;22.24;101821.56;5047247;28;20048;-62
2022/04/17 09:25:18;;;;;;;9.07;4.32;;;;;;;21.45;21.83;101822.75;5050891;28;20082;-62
2022/04/17 09:28:05;;;;;;;6.03;2.90;;;;;;;21.62;21.57;101819.50;5052121;28;20063;-62
2022/04/17 09:30:39;;;;;;;5.68;1.80;;;;;;;21.80;21.66;101818.84;5051942;28;20099;-62
2022/04/17 09:33:05;;;;;;;4.55;2.22;;;;;;;21.79;21.78;101804.66;5051559;28;20045;-62
2022/04/17 09:35:32;;;;;;;3.83;1.88;;;;;;;21.92;21.38;101799.06;5051414;28;20069;-62
2022/04/17 09:38:02;;;;;;;6.82;2.10;;;;;;;22.26;21.34;101805.91;5051465;28;20102;-63
2022/04/17 09:40:31;;;;;;;6.97;2.90;;;;;;;22.32;21.34;101803.56;5051772;28;20044;-62
2022/04/17 09:43:12;;;;;;;4.82;2.50;;;;;;;22.33;21.82;101817.75;5051812;28;20052;-62
2022/04/17 09:46:04;;;;;;;6.03;2.20;;;;;;;22.40;21.99;101810.03;5051327;28;20543;-62
2022/04/17 09:48:31;;;;;;;7.18;2.28;;;;;;;22.43;22.85;101799.09;5041000;28;20502;-62
2022/04/17 09:50:58;;;;;;;6.28;1.73;;;;;;;22.41;21.89;101793.88;5050495;28;20049;-62
2022/04/17 09:53:34;;;;;;;5.68;4.30;;;;;;;22.61;21.23;101789.41;5051448;28;20167;-62
2022/04/17 09:56:11;;;;;;;7.60;2.40;;;;;;;22.80;21.22;101787.69;5051126;28;20075;-62
2022/04/17 09:58:42;;;;;;;5.15;1.55;;;;;;;22.90;21.36;101776.97;5051070;28;20083;-62
2022/04/17 10:01:19;;;;;;;7.40;2.08;;;;;;;23.11;21.39;101777.66;5049608;28;20052;-62
2022/04/17 10:03:46;;;;;;;10.98;6.80;;;;;;;23.28;21.45;101772.56;5051219;28;20131;-62
2022/04/17 10:06:13;;;;;;;3.95;1.70;;;;;;;23.31;21.08;101767.75;5051001;28;20041;-63
2022/04/17 10:08:43;;;;;;;7.45;5.30;;;;;;;23.37;20.92;101758.28;5050343;28;20049;-62
2022/04/17 10:11:10;;;;;;;5.88;2.38;;;;;;;23.46;20.91;101756.56;5051087;28;20827;-62
2022/04/17 10:13:38;;;;;;;5.15;2.63;;;;;;;23.61;21.04;101754.25;5040005;28;20103;-63
2022/04/17 10:16:07;;;;;;;6.00;2.47;;;;;;;23.77;20.87;101749.09;5050476;28;20041;-62
2022/04/17 10:18:41;;;;;;;5.38;2.05;;;;;;;23.90;20.74;101754.09;5050726;28;20063;-62
2022/04/17 10:21:11;;;;;;;6.22;1.80;;;;;;;23.86;20.59;101747.34;5050307;28;20041;-63
2022/04/17 10:23:43;;;;;;;5.03;1.80;;;;;;;24.08;20.52;101740.75;5050307;28;20103;-63
2022/04/17 10:26:14;;;;;;;7.57;1.63;;;;;;;24.10;20.50;101744.13;5050509;28;20052;-62
2022/04/17 10:28:46;;;;;;;4.75;1.50;;;;;;;24.11;20.27;101739.59;5050431;28;20045;-62
2022/04/17 10:31:17;;;;;;;5.72;1.85;;;;;;;24.17;20.04;101732.78;5047108;28;20456;-62
2022/04/17 10:34:26;;;;;;;4.43;2.10;;;;;;;24.36;19.82;101729.13;5048583;28;20052;-62
2022/04/17 10:37:11;;;;;;;3.05;1.90;;;;;;;24.48;19.91;101724.34;5039120;28;20045;-61
2022/04/17 10:39:47;;;;;;;7.05;2.90;;;;;;;24.60;19.61;101725.78;5043938;28;20041;-63
2022/04/17 10:42:13;;;;;;;4.88;2.38;;;;;;;24.56;19.54;101725.25;5050375;28;20045;-62
2022/04/17 10:44:45;;;;;;;5.00;1.75;;;;;;;24.75;19.76;101726.94;5050405;28;20095;-63
2022/04/17 10:47:24;;;;;;;5.70;1.50;;;;;;;24.78;19.37;101715.06;5038159;28;20061;-62
2022/04/17 10:49:57;;;;;;;6.97;2.40;;;;;;;24.95;19.16;101713.34;5050086;28;20076;-62
2022/04/17 10:52:29;;;;;;;3.88;1.60;;;;;;;25.06;19.23;101709.53;5050257;28;20098;-62
2022/04/17 10:55:07;;;;;;;5.50;1.95;;;;;;;24.84;19.27;101711.75;5050178;28;20087;-63
2022/04/17 10:57:50;;;;;;;5.35;1.88;;;;;;;24.92;18.89;101698.38;5050110;28;20079;-62
2022/04/17 11:00:36;;;;;;;4.90;2.00;;;;;;;24.92;18.97;101687.66;5043991;28;20519;-63
2022/04/17 11:03:23;;;;;;;14.60;11.90;;;;;;;24.75;19.06;101689.38;5049793;28;20193;-63
2022/04/17 11:08:45;;;;;;;;;;;;;;;24.97;18.65;101676.41;5037135;28;20049;-62
2022/04/17 11:11:12;;;;;;;;;;;;;;;25.26;18.36;101669.84;5050133;28;20368;-63
2022/04/17 11:14:06;;;;;;;4.43;1.20;;;;;;;25.40;18.11;101671.94;5049778;28;19963;-62
2022/04/17 11:16:44;;;;;;;3.05;1.70;;;;;;;25.48;18.12;101660.38;5049537;28;20045;-63
2022/04/17 11:19:13;;;;;;;4.20;1.60;;;;;;;25.58;17.84;101661.09;5049151;28;20072;-63
2022/04/17 11:21:47;;;;;;;8.93;1.70;;;;;;;25.68;17.72;101652.03;5049451;28;20102;-62
2022/04/17 11:24:14;;;;;;;4.28;1.70;;;;;;;25.73;17.49;101647.84;5049641;28;20056;-62
2022/04/17 11:26:52;;;;;;;4.50;2.10;;;;;;;25.80;17.26;101633.72;5049472;28;20480;-62
2022/04/17 11:29:35;;;;;;;5.22;1.73;;;;;;;25.91;17.21;101634.28;5049348;28;20049;-63
2022/04/17 11:32:03;;;;;;;7.38;1.90;;;;;;;25.83;17.51;101636.09;5048227;28;20049;-63
2022/04/17 11:34:53;;;;;;;6.28;1.55;;;;;;;26.05;17.39;101630.06;5049689;28;20095;-62
2022/04/17 11:37:20;;;;;;;4.05;1.60;;;;;;;26.09;17.54;101633.28;5047965;28;20041;-62
2022/04/17 11:39:47;;;;;;;4.22;1.58;;;;;;;26.14;17.42;101622.03;5049300;28;20041;-62
2022/04/17 11:42:14;;;;;;;5.45;1.60;;;;;;;25.88;17.44;101621.13;5047795;28;20550;-62
2022/04/17 11:44:46;;;;;;;7.40;1.65;;;;;;;25.95;17.37;101615.09;5049110;28;20444;-62
2022/04/17 11:47:14;;;;;;;5.43;1.75;;;;;;;26.22;17.27;101617.47;5034926;28;20053;-63
2022/04/17 11:49:42;;;;;;;6.82;1.60;;;;;;;26.05;17.24;101607.72;5047935;28;20413;-63
2022/04/17 11:52:10;;;;;;;4.53;1.75;;;;;;;26.13;16.94;101613.13;5048843;28;20410;-62
2022/04/17 11:54:41;;;;;;;2.83;1.40;;;;;;;26.13;17.06;101618.50;5048559;28;20068;-62
2022/04/17 11:57:08;;;;;;;7.40;1.90;;;;;;;26.17;17.19;101613.59;5049098;28;20146;-62